Time;durP1;ratioP1;P1;durP2;ratioP2;P2;SDS_P1;SDS_P2;PMS_P1;PMS_P2;Temp;Humidity;BMP_temperature;BMP_pressure;BME280_temperature;BME280_humidity;BME280_pressure;Samples;Min_cycle;Max_cycle;Signal;HPM_P1;HPM_P2
2021/12/06 00:01:41;;;;;;;104.38;94.78;;;;;;;2.41;100.00;100272.38;4946499;29;20059;-78
2021/12/06 00:04:13;;;;;;;109.25;99.75;;;;;;;2.41;100.00;100275.00;4945933;28;20412;-76
2021/12/06 00:06:43;;;;;;;103.17;93.60;;;;;;;2.35;100.00;100285.31;4954039;28;20563;-76
2021/12/06 00:09:13;;;;;;;100.68;91.65;;;;;;;2.36;100.00;100282.56;4946818;29;20052;-78
2021/12/06 00:11:40;;;;;;;112.25;101.53;;;;;;;2.34;100.00;100273.22;4945265;29;20055;-76
2021/12/06 00:14:06;;;;;;;109.13;98.97;;;;;;;2.31;100.00;100281.41;4944305;29;20067;-78
2021/12/06 00:16:34;;;;;;;104.07;94.03;;;;;;;2.40;100.00;100275.19;4949468;28;20476;-79
2021/12/06 00:19:00;;;;;;;121.22;110.13;;;;;;;2.37;100.00;100291.25;4945676;29;20058;-79
2021/12/06 00:21:28;;;;;;;117.88;107.55;;;;;;;2.22;100.00;100289.25;4947541;28;20051;-76
2021/12/06 00:23:57;;;;;;;119.72;108.72;;;;;;;2.12;100.00;100291.22;4953920;28;20039;-78
2021/12/06 00:26:24;;;;;;;104.82;94.13;;;;;;;2.18;100.00;100293.19;4951456;29;20051;-76
2021/12/06 00:28:57;;;;;;;104.97;93.97;;;;;;;2.24;100.00;100275.97;4950262;29;20066;-75
2021/12/06 00:31:24;;;;;;;;;;;;;;;2.20;100.00;100280.72;4948057;29;20066;-76
2021/12/06 00:33:57;;;;;;;121.60;109.90;;;;;;;2.25;100.00;100285.50;4946698;29;20371;-80
2021/12/06 00:36:27;;;;;;;131.13;118.40;;;;;;;2.15;100.00;100290.88;4946467;29;20054;-77
2021/12/06 00:38:57;;;;;;;106.32;95.05;;;;;;;2.19;100.00;100281.72;4946002;28;20047;-81
2021/12/06 00:41:25;;;;;;;119.82;107.90;;;;;;;2.25;100.00;100283.69;4952691;29;20051;-77
2021/12/06 00:43:52;;;;;;;125.70;113.97;;;;;;;2.27;100.00;100278.28;4948590;29;20106;-78
2021/12/06 00:46:19;;;;;;;115.63;104.80;;;;;;;2.37;100.00;100289.44;4947573;28;20138;-77
2021/12/06 00:48:46;;;;;;;115.63;104.13;;;;;;;2.18;100.00;100281.84;4951743;29;20133;-76
2021/12/06 00:51:15;;;;;;;121.38;109.95;;;;;;;2.16;100.00;100302.19;4950005;29;20125;-79
2021/12/06 00:53:42;;;;;;;125.93;114.32;;;;;;;2.20;100.00;100293.81;4943756;29;20074;-77
2021/12/06 00:56:11;;;;;;;122.80;110.38;;;;;;;2.24;100.00;100282.06;4958313;28;20057;-75
2021/12/06 00:58:38;;;;;;;124.03;112.20;;;;;;;2.22;100.00;100273.53;4951462;29;20460;-76
2021/12/06 01:01:06;;;;;;;137.45;123.55;;;;;;;2.30;100.00;100259.63;4946802;29;20051;-77
2021/12/06 01:03:35;;;;;;;133.07;120.07;;;;;;;2.18;100.00;100253.88;4953191;28;20114;-78
2021/12/06 01:06:02;;;;;;;140.02;127.28;;;;;;;2.14;100.00;100244.69;4945515;29;20135;-81
2021/12/06 01:08:29;;;;;;;141.90;127.38;;;;;;;2.04;100.00;100244.03;4947614;29;20051;-79
2021/12/06 01:10:56;;;;;;;146.60;131.15;;;;;;;2.08;100.00;100232.22;4946372;29;20055;-75
2021/12/06 01:13:24;;;;;;;143.65;128.20;;;;;;;2.09;100.00;100225.19;4941068;29;20476;-78
2021/12/06 01:15:52;;;;;;;154.90;139.15;;;;;;;2.14;100.00;100220.28;4949891;28;20477;-77
2021/12/06 01:18:19;;;;;;;154.82;140.00;;;;;;;2.13;100.00;100206.38;4954218;28;20054;-77
2021/12/06 01:20:53;;;;;;;157.00;142.50;;;;;;;2.18;100.00;100193.59;4948614;29;20059;-78
2021/12/06 01:23:25;;;;;;;172.77;155.80;;;;;;;2.10;100.00;100192.78;4952355;29;20070;-75
2021/12/06 01:26:09;;;;;;;187.60;169.32;;;;;;;2.08;100.00;100199.97;4951631;28;20043;-75
2021/12/06 01:31:36;;;;;;;168.82;153.18;;;;;;;2.16;100.00;100213.91;4953619;28;20055;-78
2021/12/06 01:39:09;;;;;;;188.93;172.60;;;;;;;2.24;100.00;100213.91;4950201;28;20130;-77
2021/12/06 01:39:45;;;;;;;168.15;152.55;;;;;;;2.20;100.00;100241.41;4952505;28;20106;-79
2021/12/06 01:42:13;;;;;;;169.48;154.70;;;;;;;2.23;100.00;100261.22;4957234;28;20114;-78
2021/12/06 01:44:43;;;;;;;151.80;137.52;;;;;;;2.22;100.00;100259.59;4945160;29;20486;-79
2021/12/06 01:47:12;;;;;;;124.47;111.22;;;;;;;2.36;100.00;100242.41;4953634;29;20063;-80
2021/12/06 01:49:42;;;;;;;133.38;120.50;;;;;;;2.36;100.00;100242.41;4946266;28;20055;-76
2021/12/06 01:52:13;;;;;;;133.48;119.93;;;;;;;2.38;100.00;100246.50;4945160;29;20114;-77
2021/12/06 01:54:40;;;;;;;147.07;133.25;;;;;;;2.39;100.00;100256.03;4953391;28;20059;-78
2021/12/06 01:57:08;;;;;;;150.13;136.35;;;;;;;2.42;100.00;100244.38;4958403;29;20055;-76
2021/12/06 01:59:36;;;;;;;156.85;142.05;;;;;;;2.42;100.00;100234.72;4950682;29;20469;-79
2021/12/06 02:02:05;;;;;;;155.45;139.38;;;;;;;2.36;100.00;100235.38;4949646;29;20051;-76
2021/12/06 02:04:33;;;;;;;158.57;144.25;;;;;;;2.34;100.00;100237.34;4953470;29;20125;-76
2021/12/06 02:07:02;;;;;;;171.02;155.40;;;;;;;2.28;100.00;100230.13;4950543;29;20614;-80
2021/12/06 02:09:29;;;;;;;171.85;155.93;;;;;;;2.32;100.00;100223.56;4952828;28;20055;-78
2021/12/06 02:11:58;;;;;;;156.60;141.68;;;;;;;2.41;100.00;100227.81;4959038;29;20535;-78
2021/12/06 02:14:33;;;;;;;155.38;141.20;;;;;;;2.42;100.00;100226.84;4952197;29;20488;-80
2021/12/06 02:17:10;;;;;;;145.98;132.32;;;;;;;2.27;100.00;100218.03;4952473;29;20054;-77
2021/12/06 02:19:41;;;;;;;162.52;146.25;;;;;;;2.16;100.00;100234.88;4950814;29;20095;-80
2021/12/06 02:22:13;;;;;;;168.55;153.52;;;;;;;2.11;100.00;100252.88;4952046;29;20150;-75
2021/12/06 02:24:47;;;;;;;;;;;;;;;2.22;100.00;100264.84;4950107;29;20059;-79
2021/12/06 02:27:15;;;;;;;140.52;127.22;;;;;;;2.31;100.00;100263.06;4953520;28;20001;-77
2021/12/06 02:29:45;;;;;;;143.98;129.70;;;;;;;2.31;100.00;100240.28;4947585;29;20456;-78
2021/12/06 02:32:13;;;;;;;178.70;162.57;;;;;;;2.31;100.00;100232.41;4955388;29;20106;-76
2021/12/06 02:34:44;;;;;;;149.38;134.55;;;;;;;2.37;100.00;100228.34;4954908;28;20142;-79
2021/12/06 02:37:17;;;;;;;165.60;149.88;;;;;;;2.43;100.00;100223.25;4944691;29;20477;-76
2021/12/06 02:39:44;;;;;;;200.38;183.10;;;;;;;2.40;100.00;100222.75;4947993;29;20606;-81
2021/12/06 02:42:15;;;;;;;197.07;180.05;;;;;;;2.49;100.00;100229.63;4942848;29;20063;-79
2021/12/06 02:44:43;;;;;;;167.05;150.50;;;;;;;2.32;100.00;100228.00;4950537;28;20174;-78
2021/12/06 02:47:11;;;;;;;193.80;175.45;;;;;;;2.43;100.00;100230.28;4948211;29;20047;-80
2021/12/06 02:49:38;;;;;;;183.80;165.57;;;;;;;2.31;100.00;100231.59;4949969;29;20121;-76
2021/12/06 02:52:05;;;;;;;198.85;178.35;;;;;;;2.40;100.00;100254.22;4956438;29;20055;-81
2021/12/06 02:54:35;;;;;;;189.73;169.23;;;;;;;2.37;100.00;100241.44;4948711;29;20059;-76
2021/12/06 02:57:19;;;;;;;184.75;165.98;;;;;;;2.31;100.00;100226.38;4942400;29;20066;-75
2021/12/06 02:59:47;;;;;;;163.95;146.82;;;;;;;2.28;100.00;100230.13;4956069;28;20051;-79
2021/12/06 03:02:19;;;;;;;158.45;141.30;;;;;;;2.38;100.00;100224.72;5078477;23;20066;-76
2021/12/06 03:04:46;;;;;;;165.73;147.85;;;;;;;2.28;100.00;100219.66;4968460;28;20121;-79
2021/12/06 03:07:15;;;;;;;155.20;138.57;;;;;;;2.20;100.00;100224.88;4968448;28;20047;-77
2021/12/06 03:09:45;;;;;;;177.38;159.73;;;;;;;2.16;100.00;100221.78;4974481;28;20500;-81
2021/12/06 03:12:14;;;;;;;191.55;173.70;;;;;;;2.10;100.00;100219.81;4970125;28;20065;-78
2021/12/06 03:14:44;;;;;;;156.48;140.73;;;;;;;2.13;100.00;100229.13;4968623;28;20050;-78
2021/12/06 03:17:12;;;;;;;150.73;136.80;;;;;;;2.12;100.00;100240.59;4968915;28;20051;-78
2021/12/06 03:19:41;;;;;;;157.55;142.63;;;;;;;2.01;100.00;100229.44;4970182;28;20471;-76
2021/12/06 03:22:10;;;;;;;161.10;146.05;;;;;;;1.95;100.00;100231.91;4970891;28;20125;-77
2021/12/06 03:24:37;;;;;;;155.07;140.75;;;;;;;2.00;100.00;100224.38;4968329;28;20059;-77
2021/12/06 03:27:06;;;;;;;160.40;145.50;;;;;;;2.11;100.00;100228.47;4958239;28;20059;-77
2021/12/06 03:29:34;;;;;;;148.00;134.55;;;;;;;2.08;100.00;100220.94;4972813;28;20113;-76
2021/12/06 03:32:01;;;;;;;157.93;142.85;;;;;;;2.04;100.00;100230.94;4971409;28;20499;-77
2021/12/06 03:34:29;;;;;;;136.77;122.93;;;;;;;2.13;100.00;100239.63;4965836;28;20059;-76
2021/12/06 03:36:56;;;;;;;141.63;127.50;;;;;;;2.01;100.00;100242.56;4968477;28;20047;-79
2021/12/06 03:39:27;;;;;;;147.30;132.35;;;;;;;2.05;100.00;100236.00;4962306;28;20122;-78
2021/12/06 03:41:56;;;;;;;149.07;133.75;;;;;;;2.14;100.00;100220.28;4974822;28;20118;-75
2021/12/06 03:44:24;;;;;;;154.43;139.05;;;;;;;2.13;100.00;100218.66;4968174;28;20059;-78
2021/12/06 03:46:54;;;;;;;156.80;141.25;;;;;;;1.99;100.00;100212.25;4967410;28;20062;-78
2021/12/06 03:49:21;;;;;;;163.63;147.82;;;;;;;2.16;100.00;100213.09;4971407;28;20055;-78
2021/12/06 03:51:49;;;;;;;152.77;138.38;;;;;;;2.17;100.00;100230.44;4965814;28;20128;-79
2021/12/06 03:54:19;;;;;;;141.43;127.47;;;;;;;2.08;100.00;100224.38;4966695;28;20423;-78
2021/12/06 03:56:46;;;;;;;161.20;144.98;;;;;;;2.04;100.00;100223.88;4963003;28;20059;-76
2021/12/06 03:59:14;;;;;;;150.07;135.18;;;;;;;2.18;100.00;100219.81;4967477;28;20062;-76
2021/12/06 04:01:43;;;;;;;155.00;140.27;;;;;;;2.12;100.00;100202.13;4965688;28;20059;-79
2021/12/06 04:04:11;;;;;;;156.95;141.63;;;;;;;2.15;100.00;100208.81;4962402;28;20487;-77
2021/12/06 04:06:40;;;;;;;148.13;134.13;;;;;;;2.09;100.00;100241.75;4966831;28;20048;-78
2021/12/06 04:09:08;;;;;;;144.52;130.82;;;;;;;2.16;100.00;100250.59;4968489;28;20055;-75
2021/12/06 04:11:36;;;;;;;132.75;119.85;;;;;;;2.18;100.00;100247.78;4973060;28;20059;-77
2021/12/06 04:14:04;;;;;;;136.90;124.15;;;;;;;2.23;100.00;100245.50;4969913;28;20061;-77
2021/12/06 04:16:31;;;;;;;107.55;96.50;;;;;;;2.35;100.00;100251.25;4963386;28;20066;-75
2021/12/06 04:19:00;;;;;;;109.65;96.00;;;;;;;2.22;100.00;100260.41;4959966;28;20114;-76
2021/12/06 04:21:27;;;;;;;132.65;107.80;;;;;;;2.23;100.00;100264.66;4968375;28;20051;-76
2021/12/06 04:23:54;;;;;;;140.05;126.47;;;;;;;2.15;100.00;100271.69;4965069;28;20109;-75
2021/12/06 04:26:22;;;;;;;111.93;100.32;;;;;;;2.13;100.00;100252.72;4964961;28;20436;-76
2021/12/06 04:28:58;;;;;;;125.32;113.65;;;;;;;2.08;100.00;100249.75;4964553;28;20042;-75
2021/12/06 04:31:24;;;;;;;138.10;125.55;;;;;;;2.14;100.00;100256.97;4970912;28;20113;-78
2021/12/06 04:33:51;;;;;;;147.95;134.13;;;;;;;2.07;100.00;100259.44;4966463;28;20495;-78
2021/12/06 04:36:19;;;;;;;129.32;117.32;;;;;;;2.07;100.00;100246.31;4967430;28;20079;-76
2021/12/06 04:38:46;;;;;;;127.88;116.22;;;;;;;2.09;100.00;100244.38;4968319;28;20519;-78
2021/12/06 04:41:13;;;;;;;132.57;120.60;;;;;;;2.13;100.00;100247.47;4964380;28;20188;-77
2021/12/06 04:43:40;;;;;;;128.68;116.55;;;;;;;2.18;100.00;100255.66;4965442;28;20113;-75
2021/12/06 04:46:07;;;;;;;123.63;111.63;;;;;;;2.12;100.00;100258.91;4966231;28;20126;-76
2021/12/06 04:48:33;;;;;;;113.32;101.97;;;;;;;2.00;100.00;100261.88;4970079;28;20523;-77
2021/12/06 04:51:01;;;;;;;116.57;104.97;;;;;;;2.04;100.00;100268.41;4965228;28;20114;-77
2021/12/06 04:53:36;;;;;;;108.40;97.18;;;;;;;2.13;100.00;100245.69;4959597;28;20082;-75
2021/12/06 04:56:08;;;;;;;131.75;118.45;;;;;;;1.97;100.00;100259.56;4964937;28;20051;-79
2021/12/06 04:58:41;;;;;;;105.20;93.60;;;;;;;2.12;100.00;100259.78;4962603;28;20062;-74
2021/12/06 05:01:11;;;;;;;124.15;111.78;;;;;;;1.97;100.00;100256.97;4962521;28;20054;-75
2021/12/06 05:03:40;;;;;;;139.18;125.90;;;;;;;2.12;100.00;100237.97;4963804;28;20051;-75
2021/12/06 05:06:12;;;;;;;147.63;133.98;;;;;;;1.95;100.00;100229.28;4963585;28;20154;-75
2021/12/06 05:08:45;;;;;;;145.40;132.23;;;;;;;1.94;100.00;100230.28;4972155;28;20118;-75
2021/12/06 05:11:12;;;;;;;158.52;143.38;;;;;;;1.92;100.00;100219.94;4969436;28;20062;-76
2021/12/06 05:13:44;;;;;;;159.90;145.05;;;;;;;1.99;100.00;100225.34;4966920;28;20051;-78
2021/12/06 05:16:11;;;;;;;146.23;132.52;;;;;;;2.03;100.00;100219.63;4971182;28;20486;-78
2021/12/06 05:18:37;;;;;;;140.00;126.28;;;;;;;2.00;100.00;100214.72;4962919;28;20479;-77
2021/12/06 05:21:04;;;;;;;146.43;132.82;;;;;;;2.00;100.00;100213.91;4966334;28;20058;-76
2021/12/06 05:23:31;;;;;;;178.70;160.25;;;;;;;2.03;100.00;100211.78;4961949;28;20460;-76
2021/12/06 05:25:59;;;;;;;166.73;151.05;;;;;;;2.01;100.00;100216.34;4964680;28;20092;-77
2021/12/06 05:28:31;;;;;;;168.77;153.60;;;;;;;2.00;100.00;100213.91;4962381;28;20078;-78
2021/12/06 05:30:57;;;;;;;185.43;167.45;;;;;;;2.08;100.00;100216.50;4963675;28;20055;-76
2021/12/06 05:33:30;;;;;;;169.57;153.07;;;;;;;2.09;100.00;100212.09;4964166;28;20050;-76
2021/12/06 05:36:02;;;;;;;157.95;142.63;;;;;;;2.04;100.00;100209.97;4966119;28;20142;-75
2021/12/06 05:38:30;;;;;;;158.50;143.17;;;;;;;1.99;100.00;100227.97;4963853;28;20534;-76
2021/12/06 05:40:58;;;;;;;183.85;167.45;;;;;;;2.08;100.00;100239.28;4971827;28;20466;-76
2021/12/06 05:43:26;;;;;;;179.65;164.15;;;;;;;2.21;100.00;100234.38;4963458;28;20054;-77
2021/12/06 05:45:53;;;;;;;165.43;151.13;;;;;;;2.10;100.00;100232.09;4963629;28;20051;-76
2021/12/06 05:48:21;;;;;;;145.98;131.18;;;;;;;1.89;100.00;100217.66;4970523;28;20074;-78
2021/12/06 05:50:49;;;;;;;158.52;144.38;;;;;;;2.11;100.00;100212.75;4970363;28;20133;-77
2021/12/06 05:53:16;;;;;;;148.80;135.30;;;;;;;2.08;100.00;100234.84;4965969;28;20051;-78
2021/12/06 05:55:44;;;;;;;147.90;133.27;;;;;;;2.02;100.00;100235.50;4962511;28;20051;-77
2021/12/06 05:58:15;;;;;;;152.00;138.88;;;;;;;2.02;100.00;100232.88;4971239;28;20114;-75
2021/12/06 06:00:42;;;;;;;139.68;126.68;;;;;;;2.08;100.00;100223.56;4965467;28;20118;-76
2021/12/06 06:03:11;;;;;;;156.55;142.20;;;;;;;2.03;100.00;100222.25;4965609;28;20463;-76
2021/12/06 06:05:38;;;;;;;156.32;142.70;;;;;;;2.09;100.00;100225.19;4971520;28;20456;-75
2021/12/06 06:08:06;;;;;;;129.15;116.43;;;;;;;2.04;100.00;100220.44;4971198;28;20055;-76
2021/12/06 06:10:33;;;;;;;137.93;124.97;;;;;;;2.01;100.00;100210.28;4970490;28;20487;-75
2021/12/06 06:13:01;;;;;;;158.90;144.73;;;;;;;2.05;100.00;100209.78;4970245;28;20043;-76
2021/12/06 06:15:29;;;;;;;139.50;126.13;;;;;;;2.21;100.00;100214.25;4970715;28;20396;-76
2021/12/06 06:17:57;;;;;;;134.48;121.80;;;;;;;2.01;100.00;100229.44;4969170;28;20055;-79
2021/12/06 06:20:26;;;;;;;141.75;128.32;;;;;;;2.10;100.00;100239.94;4970872;28;20039;-76
2021/12/06 06:22:55;;;;;;;131.73;119.47;;;;;;;2.12;100.00;100267.63;4971970;28;20129;-78
2021/12/06 06:25:22;;;;;;;143.00;129.57;;;;;;;2.09;100.00;100272.34;4975129;28;20047;-77
2021/12/06 06:27:48;;;;;;;138.27;125.30;;;;;;;2.45;100.00;100246.66;4966500;28;20475;-76
2021/12/06 06:30:16;;;;;;;145.77;132.18;;;;;;;2.07;100.00;100238.47;4968135;28;20109;-81
2021/12/06 06:32:46;;;;;;;132.77;120.28;;;;;;;2.11;100.00;100237.16;4973003;28;20050;-79
2021/12/06 06:35:14;;;;;;;179.35;162.73;;;;;;;4.92;100.00;100238.13;4965877;28;20043;-79
2021/12/06 06:37:42;;;;;;;137.35;125.15;;;;;;;2.34;100.00;100247.00;4974173;28;20054;-78
2021/12/06 06:40:09;;;;;;;127.82;115.70;;;;;;;2.20;100.00;100241.41;4962824;28;20067;-76
2021/12/06 06:42:36;;;;;;;122.78;111.07;;;;;;;2.11;100.00;100229.28;4968521;28;20047;-77
2021/12/06 06:45:05;;;;;;;120.55;108.63;;;;;;;2.23;100.00;100229.78;4972174;28;20051;-77
2021/12/06 06:47:32;;;;;;;137.90;125.20;;;;;;;2.27;100.00;100226.69;4967390;28;20118;-78
2021/12/06 06:50:07;;;;;;;137.38;124.78;;;;;;;2.32;100.00;100228.00;4963698;28;20055;-76
2021/12/06 06:52:34;;;;;;;139.98;127.20;;;;;;;2.23;100.00;100230.59;4970122;28;20051;-77
2021/12/06 06:55:03;;;;;;;124.95;113.10;;;;;;;2.24;100.00;100215.69;4970560;28;20121;-75
2021/12/06 06:57:29;;;;;;;139.52;126.45;;;;;;;2.19;100.00;100216.19;4975137;28;20129;-75
2021/12/06 06:59:56;;;;;;;142.02;129.32;;;;;;;2.24;100.00;100223.56;4965940;28;20137;-78
2021/12/06 07:02:23;;;;;;;148.73;135.02;;;;;;;2.25;100.00;100228.66;4965558;28;20129;-75
2021/12/06 07:04:50;;;;;;;141.38;128.75;;;;;;;2.27;100.00;100252.09;4969581;28;20046;-77
2021/12/06 07:07:18;;;;;;;137.20;124.20;;;;;;;2.47;100.00;100255.19;4963289;28;20051;-77
2021/12/06 07:09:45;;;;;;;144.13;131.45;;;;;;;2.49;100.00;100263.72;4968178;28;20213;-76
2021/12/06 07:12:16;;;;;;;129.10;117.70;;;;;;;2.40;100.00;100260.28;4968300;28;20431;-77
2021/12/06 07:14:44;;;;;;;113.50;103.30;;;;;;;2.50;100.00;100257.47;4965438;28;20054;-76
2021/12/06 07:17:12;;;;;;;117.30;106.32;;;;;;;2.63;100.00;100251.72;4971385;28;20468;-75
2021/12/06 07:19:38;;;;;;;107.18;97.07;;;;;;;2.60;100.00;100254.69;4974390;28;20113;-76
2021/12/06 07:22:05;;;;;;;132.25;120.88;;;;;;;2.69;100.00;100266.81;4972800;28;20116;-77
2021/12/06 07:24:34;;;;;;;126.07;115.00;;;;;;;2.79;100.00;100271.91;4972427;28;20051;-77
2021/12/06 07:27:01;;;;;;;128.52;118.15;;;;;;;2.86;100.00;100268.44;4976869;28;20039;-78
2021/12/06 07:29:29;;;;;;;128.52;117.95;;;;;;;2.91;100.00;100274.00;4970893;28;20114;-77
2021/12/06 07:31:56;;;;;;;129.75;118.68;;;;;;;2.92;100.00;100265.13;4968638;28;20125;-75
2021/12/06 07:34:22;;;;;;;119.95;109.95;;;;;;;2.74;100.00;100275.00;4962014;28;20137;-77
2021/12/06 07:36:49;;;;;;;121.80;111.53;;;;;;;2.98;100.00;100269.72;4969941;28;20118;-75
2021/12/06 07:39:16;;;;;;;128.73;117.97;;;;;;;2.62;100.00;100269.25;4963047;28;20058;-76
2021/12/06 07:41:44;;;;;;;142.32;130.25;;;;;;;3.04;100.00;100264.78;4944023;28;20059;-76
2021/12/06 07:44:11;;;;;;;137.70;125.72;;;;;;;3.17;100.00;100254.56;4945714;29;20047;-78
2021/12/06 07:46:38;;;;;;;129.30;117.32;;;;;;;3.15;100.00;100264.44;4950847;28;20039;-76
2021/12/06 07:49:05;;;;;;;126.38;114.63;;;;;;;3.14;100.00;100270.66;4953217;28;20055;-75
2021/12/06 07:51:32;;;;;;;113.25;102.35;;;;;;;3.31;100.00;100261.75;4950398;28;20471;-78
2021/12/06 07:53:59;;;;;;;125.75;113.60;;;;;;;3.38;100.00;100260.06;4946315;28;20051;-76
2021/12/06 07:56:27;;;;;;;137.15;123.82;;;;;;;3.51;100.00;100256.09;4958586;28;20047;-79
2021/12/06 07:58:55;;;;;;;146.85;133.60;;;;;;;3.59;100.00;100251.63;4953528;29;20134;-76
2021/12/06 08:01:22;;;;;;;150.45;136.93;;;;;;;3.53;100.00;100256.75;4942172;28;20083;-77
2021/12/06 08:03:49;;;;;;;150.32;136.43;;;;;;;3.28;100.00;100266.53;4946963;29;20067;-75
2021/12/06 08:06:16;;;;;;;147.25;133.32;;;;;;;3.56;100.00;100261.66;4945873;28;20097;-76
2021/12/06 08:08:44;;;;;;;140.40;126.63;;;;;;;3.63;100.00;100268.69;4954601;28;20110;-79
2021/12/06 08:11:14;;;;;;;172.65;156.48;;;;;;;3.46;100.00;100272.38;4950574;29;20082;-78
2021/12/06 08:13:44;;;;;;;163.77;148.45;;;;;;;3.39;100.00;100266.97;4950370;28;20106;-76
2021/12/06 08:16:14;;;;;;;162.55;147.40;;;;;;;3.77;100.00;100272.38;4946219;28;20061;-76
2021/12/06 08:18:41;;;;;;;164.63;148.85;;;;;;;3.81;100.00;100255.31;4945141;28;20063;-78
2021/12/06 08:21:08;;;;;;;178.07;161.30;;;;;;;3.80;100.00;100239.69;4946306;28;20051;-76
2021/12/06 08:23:35;;;;;;;164.85;149.40;;;;;;;3.70;100.00;100247.81;4948653;28;20056;-78
2021/12/06 08:26:04;;;;;;;165.75;150.70;;;;;;;3.56;100.00;100267.72;4956795;29;20047;-75
2021/12/06 08:28:31;;;;;;;143.52;129.85;;;;;;;3.60;100.00;100266.41;4950585;28;20059;-79
2021/12/06 08:30:59;;;;;;;149.95;135.90;;;;;;;3.70;100.00;100250.44;4948045;28;20051;-76
2021/12/06 08:33:27;;;;;;;141.45;127.85;;;;;;;3.81;100.00;100249.19;4950406;28;20055;-76
2021/12/06 08:35:54;;;;;;;162.82;147.88;;;;;;;3.69;100.00;100251.41;4950502;28;20562;-76
2021/12/06 08:38:23;;;;;;;158.80;144.32;;;;;;;3.89;100.00;100262.31;4949114;28;20055;-76
2021/12/06 08:40:51;;;;;;;163.07;148.05;;;;;;;3.72;100.00;100243.16;4943141;28;20055;-75
2021/12/06 08:43:19;;;;;;;175.43;159.43;;;;;;;3.86;100.00;100244.25;4941234;29;20066;-77
2021/12/06 08:45:49;;;;;;;168.75;153.55;;;;;;;3.87;100.00;100246.72;4949781;28;20069;-77
2021/12/06 08:48:16;;;;;;;156.40;142.73;;;;;;;3.76;100.00;100246.28;4943749;29;20373;-78
2021/12/06 08:50:44;;;;;;;150.55;136.80;;;;;;;3.76;100.00;100246.28;4947303;29;20115;-75
2021/12/06 08:53:12;;;;;;;167.98;152.82;;;;;;;4.06;100.00;100245.44;4947485;29;20385;-76
2021/12/06 08:55:39;;;;;;;189.15;171.80;;;;;;;3.98;100.00;100232.34;4946368;29;20126;-75
2021/12/06 08:58:06;;;;;;;197.23;179.68;;;;;;;4.18;100.00;100242.41;4945330;29;20464;-77
2021/12/06 09:00:35;;;;;;;184.13;167.68;;;;;;;4.12;100.00;100236.84;4943523;29;20135;-77
2021/12/06 09:03:02;;;;;;;165.57;150.55;;;;;;;4.00;100.00;100233.00;4946452;29;20059;-75
2021/12/06 09:05:34;;;;;;;156.38;141.73;;;;;;;4.22;100.00;100241.88;4952078;29;20051;-78
2021/12/06 09:08:03;;;;;;;157.52;142.85;;;;;;;4.19;100.00;100231.72;4946687;29;20058;-81
2021/12/06 09:10:30;;;;;;;177.40;162.48;;;;;;;4.37;100.00;100231.41;4946679;28;20059;-77
2021/12/06 09:12:57;;;;;;;179.70;164.63;;;;;;;4.49;100.00;100235.25;4951866;29;20075;-77
2021/12/06 09:15:25;;;;;;;177.38;162.30;;;;;;;4.55;100.00;100245.06;4942206;29;20107;-76
2021/12/06 09:17:54;;;;;;;183.82;167.82;;;;;;;4.45;100.00;100238.41;4940313;29;20056;-75
2021/12/06 09:20:24;;;;;;;192.57;175.98;;;;;;;4.64;100.00;100237.09;4949960;28;20117;-76
2021/12/06 09:22:51;;;;;;;187.95;172.10;;;;;;;4.51;100.00;100240.34;4945851;28;20118;-77
2021/12/06 09:25:19;;;;;;;181.68;166.13;;;;;;;4.17;100.00;100246.84;4945525;28;20051;-77
2021/12/06 09:27:46;;;;;;;179.63;163.60;;;;;;;4.53;100.00;100238.34;4940137;28;20055;-75
2021/12/06 09:30:17;;;;;;;224.68;202.05;;;;;;;4.57;100.00;100247.53;4946475;29;20091;-75
2021/12/06 09:32:44;;;;;;;199.10;180.30;;;;;;;4.63;100.00;100241.56;4941395;29;20481;-76
2021/12/06 09:35:14;;;;;;;180.65;164.65;;;;;;;4.41;100.00;100237.13;4950600;28;20532;-77
2021/12/06 09:37:42;;;;;;;177.77;161.93;;;;;;;4.65;100.00;100242.16;4952162;28;20098;-76
2021/12/06 09:40:11;;;;;;;169.70;153.98;;;;;;;4.65;100.00;100229.00;4953285;29;20094;-78
2021/12/06 09:42:42;;;;;;;188.70;172.43;;;;;;;4.68;100.00;100227.84;4949050;28;20524;-78
2021/12/06 09:45:14;;;;;;;179.27;164.48;;;;;;;4.86;100.00;100217.78;4951294;29;20062;-77
2021/12/06 09:47:45;;;;;;;179.82;165.10;;;;;;;4.66;100.00;100232.47;4951504;29;20067;-78
2021/12/06 09:50:12;;;;;;;170.70;156.37;;;;;;;4.59;100.00;100230.53;4948942;28;20051;-76
2021/12/06 09:52:39;;;;;;;191.43;174.80;;;;;;;4.50;100.00;100220.28;4949824;29;20492;-76
2021/12/06 09:55:06;;;;;;;173.30;158.32;;;;;;;4.69;100.00;100211.06;4951064;29;20051;-77
2021/12/06 09:57:33;;;;;;;157.85;142.77;;;;;;;4.65;100.00;100202.72;4942846;29;20047;-77
2021/12/06 10:00:02;;;;;;;164.52;150.27;;;;;;;4.76;100.00;100201.47;4948075;29;20051;-77
2021/12/06 10:02:29;;;;;;;153.63;139.25;;;;;;;4.78;100.00;100188.94;4949237;28;20055;-79
2021/12/06 10:04:57;;;;;;;154.50;139.50;;;;;;;4.78;100.00;100195.03;4950234;28;20062;-78
2021/12/06 10:07:26;;;;;;;166.60;150.93;;;;;;;5.13;100.00;100202.38;4951399;29;20125;-77
2021/12/06 10:09:53;;;;;;;188.45;170.30;;;;;;;5.06;100.00;100202.28;4947027;29;20055;-79
2021/12/06 10:12:23;;;;;;;195.13;177.50;;;;;;;5.32;100.00;100206.25;4953507;28;20055;-76
2021/12/06 10:14:50;;;;;;;191.48;173.55;;;;;;;5.11;100.00;100205.16;4956440;29;20063;-76
2021/12/06 10:17:20;;;;;;;190.30;172.38;;;;;;;5.16;100.00;100188.84;4956489;29;20054;-76
2021/12/06 10:19:49;;;;;;;174.07;158.32;;;;;;;5.26;100.00;100187.56;4952598;28;20071;-77
2021/12/06 10:22:16;;;;;;;186.40;168.75;;;;;;;5.13;100.00;100179.50;4946917;29;20126;-77
2021/12/06 10:24:51;;;;;;;194.30;176.65;;;;;;;5.14;100.00;100180.28;4950068;28;20184;-79
2021/12/06 10:27:19;;;;;;;200.77;182.63;;;;;;;5.23;100.00;100184.47;4956462;29;20118;-79
2021/12/06 10:29:48;;;;;;;201.93;183.90;;;;;;;5.41;100.00;100181.44;4957082;29;20518;-79
2021/12/06 10:32:20;;;;;;;204.50;186.88;;;;;;;5.10;100.00;100179.84;4949669;29;20047;-77
2021/12/06 10:34:51;;;;;;;172.53;157.60;;;;;;;4.80;100.00;100182.50;4950410;29;20122;-77
2021/12/06 10:37:33;;;;;;;148.70;135.50;;;;;;;4.99;100.00;100173.25;4959669;28;20302;-79
2021/12/06 10:40:00;;;;;;;170.20;154.73;;;;;;;5.20;100.00;100172.47;4954877;29;20563;-78
2021/12/06 10:42:29;;;;;;;177.02;161.02;;;;;;;5.14;100.00;100165.31;4947748;29;20063;-77
2021/12/06 10:45:01;;;;;;;175.77;160.02;;;;;;;5.17;100.00;100172.84;4947526;29;20115;-78
2021/12/06 10:47:29;;;;;;;173.50;157.68;;;;;;;5.27;100.00;100170.75;4949561;28;20051;-77
2021/12/06 10:50:07;;;;;;;183.95;167.18;;;;;;;5.20;100.00;100172.47;4950906;29;20047;-79
2021/12/06 10:52:34;;;;;;;179.40;162.32;;;;;;;5.16;100.00;100178.31;4949737;29;20043;-77
2021/12/06 10:55:00;;;;;;;189.93;173.68;;;;;;;5.07;100.00;100167.06;4947579;29;20047;-78
2021/12/06 10:57:49;;;;;;;190.30;174.10;;;;;;;5.15;100.00;100169.59;4941983;29;20118;-78
2021/12/06 11:00:38;;;;;;;210.07;192.75;;;;;;;5.35;100.00;100163.75;4946909;29;20411;-79
2021/12/06 11:03:19;;;;;;;216.95;198.55;;;;;;;5.51;100.00;100163.53;4948812;29;20055;-79
2021/12/06 11:05:49;;;;;;;221.70;202.70;;;;;;;5.43;100.00;100153.91;4949999;29;20048;-78
2021/12/06 11:08:18;;;;;;;176.90;160.00;;;;;;;5.28;100.00;100150.50;4949486;29;20073;-76